sensor_id;sensor_type;location;lat;lon;timestamp;P1;durP1;ratioP1;P2;durP2;ratioP2
64595;SDS011;51003;51.628;6.670;2022-10-18T09:27:15;67.70;;;27.77;;
64595;SDS011;51003;51.628;6.670;2022-10-18T09:35:01;36.90;;;19.80;;
64595;SDS011;51003;51.628;6.670;2022-10-18T09:37:34;38.07;;;20.07;;
64595;SDS011;51003;51.628;6.670;2022-10-18T09:40:20;35.87;;;19.83;;
64595;SDS011;51003;51.628;6.670;2022-10-18T09:45:36;40.60;;;18.47;;
64595;SDS011;51003;51.628;6.670;2022-10-18T09:48:06;33.70;;;17.20;;
64595;SDS011;51003;51.628;6.670;2022-10-18T09:50:40;29.97;;;16.87;;
64595;SDS011;51003;51.628;6.670;2022-10-18T09:56:04;33.53;;;16.40;;
64595;SDS011;51003;51.628;6.670;2022-10-18T09:58:39;28.43;;;15.80;;
64595;SDS011;51003;51.628;6.670;2022-10-18T10:01:10;39.27;;;15.00;;
64595;SDS011;51003;51.628;6.670;2022-10-18T10:03:41;28.77;;;14.30;;
64595;SDS011;51003;51.628;6.670;2022-10-18T10:08:36;26.13;;;14.10;;
64595;SDS011;51003;51.628;6.670;2022-10-18T10:11:51;29.30;;;14.80;;
64595;SDS011;51003;51.628;6.670;2022-10-18T10:14:19;27.03;;;13.40;;
64595;SDS011;51003;51.628;6.670;2022-10-18T10:19:21;21.10;;;12.63;;
64595;SDS011;51003;51.628;6.670;2022-10-18T10:21:50;23.77;;;11.80;;
64595;SDS011;51003;51.628;6.670;2022-10-18T10:24:20;16.27;;;10.73;;
64595;SDS011;51003;51.628;6.670;2022-10-18T10:26:48;20.47;;;11.17;;
64595;SDS011;51003;51.628;6.670;2022-10-18T10:32:03;20.37;;;10.10;;
64595;SDS011;51003;51.628;6.670;2022-10-18T10:34:29;16.87;;;9.50;;
64595;SDS011;51003;51.628;6.670;2022-10-18T10:36:54;17.67;;;10.53;;
64595;SDS011;51003;51.628;6.670;2022-10-18T10:39:21;22.63;;;11.10;;
64595;SDS011;51003;51.628;6.670;2022-10-18T10:41:57;22.77;;;11.17;;
64595;SDS011;51003;51.628;6.670;2022-10-18T10:44:25;21.20;;;10.37;;
64595;SDS011;51003;51.628;6.670;2022-10-18T10:46:53;23.10;;;10.47;;
64595;SDS011;51003;51.628;6.670;2022-10-18T10:49:45;21.60;;;10.57;;
64595;SDS011;51003;51.628;6.670;2022-10-18T10:52:18;18.47;;;9.90;;
64595;SDS011;51003;51.628;6.670;2022-10-18T10:54:44;14.97;;;9.37;;
64595;SDS011;51003;51.628;6.670;2022-10-18T10:59:57;15.43;;;8.60;;
64595;SDS011;51003;51.628;6.670;2022-10-18T11:02:32;14.73;;;8.00;;
64595;SDS011;51003;51.628;6.670;2022-10-18T11:05:18;13.47;;;7.87;;
64595;SDS011;51003;51.628;6.670;2022-10-18T11:07:47;11.30;;;6.97;;
64595;SDS011;51003;51.628;6.670;2022-10-18T11:10:14;13.40;;;7.80;;
64595;SDS011;51003;51.628;6.670;2022-10-18T11:12:48;14.67;;;8.63;;
64595;SDS011;51003;51.628;6.670;2022-10-18T11:15:39;17.93;;;9.73;;
64595;SDS011;51003;51.628;6.670;2022-10-18T11:23:06;15.17;;;8.57;;
64595;SDS011;51003;51.628;6.670;2022-10-18T11:31:35;17.43;;;8.90;;
64595;SDS011;51003;51.628;6.670;2022-10-18T11:50:06;9.30;;;5.40;;
64595;SDS011;51003;51.628;6.670;2022-10-18T11:53:03;9.33;;;5.07;;
64595;SDS011;51003;51.628;6.670;2022-10-18T11:55:33;9.73;;;5.20;;
64595;SDS011;51003;51.628;6.670;2022-10-18T12:03:29;13.13;;;5.10;;
64595;SDS011;51003;51.628;6.670;2022-10-18T12:06:00;8.77;;;5.57;;
64595;SDS011;51003;51.628;6.670;2022-10-18T12:08:32;11.63;;;5.70;;
64595;SDS011;51003;51.628;6.670;2022-10-18T12:11:02;9.30;;;4.90;;
64595;SDS011;51003;51.628;6.670;2022-10-18T12:16:02;6.57;;;4.13;;
64595;SDS011;51003;51.628;6.670;2022-10-18T12:18:28;5.83;;;4.27;;
64595;SDS011;51003;51.628;6.670;2022-10-18T12:20:55;10.27;;;4.40;;
64595;SDS011;51003;51.628;6.670;2022-10-18T12:26:02;9.07;;;3.87;;
64595;SDS011;51003;51.628;6.670;2022-10-18T12:28:33;9.80;;;4.00;;
64595;SDS011;51003;51.628;6.670;2022-10-18T12:34:25;6.80;;;3.90;;
64595;SDS011;51003;51.628;6.670;2022-10-18T12:39:48;7.77;;;4.10;;
64595;SDS011;51003;51.628;6.670;2022-10-18T12:42:18;8.80;;;4.40;;
64595;SDS011;51003;51.628;6.670;2022-10-18T12:44:44;8.87;;;4.07;;
64595;SDS011;51003;51.628;6.670;2022-10-18T12:47:17;5.23;;;3.30;;
64595;SDS011;51003;51.628;6.670;2022-10-18T12:50:02;7.43;;;4.30;;
64595;SDS011;51003;51.628;6.670;2022-10-18T12:52:30;5.57;;;3.63;;
64595;SDS011;51003;51.628;6.670;2022-10-18T13:18:55;6.33;;;2.63;;
64595;SDS011;51003;51.628;6.670;2022-10-18T13:21:44;4.87;;;3.13;;
64595;SDS011;51003;51.628;6.670;2022-10-18T13:25:18;6.77;;;3.37;;
64595;SDS011;51003;51.628;6.670;2022-10-18T13:48:52;10.27;;;3.20;;
64595;SDS011;51003;51.628;6.670;2022-10-18T14:11:11;4.77;;;2.00;;
64595;SDS011;51003;51.628;6.670;2022-10-18T14:13:59;3.80;;;2.10;;
64595;SDS011;51003;51.628;6.670;2022-10-18T14:16:47;1.90;;;1.60;;
64595;SDS011;51003;51.628;6.670;2022-10-18T14:24:44;5.03;;;1.90;;
64595;SDS011;51003;51.628;6.670;2022-10-18T14:27:16;5.47;;;2.00;;
64595;SDS011;51003;51.628;6.670;2022-10-18T14:29:44;5.17;;;1.87;;
64595;SDS011;51003;51.628;6.670;2022-10-18T14:32:17;3.77;;;1.80;;
64595;SDS011;51003;51.628;6.670;2022-10-18T14:34:47;4.90;;;1.80;;
64595;SDS011;51003;51.628;6.670;2022-10-18T14:37:16;4.80;;;2.00;;
64595;SDS011;51003;51.628;6.670;2022-10-18T14:39:51;3.83;;;1.90;;
64595;SDS011;51003;51.628;6.670;2022-10-18T14:42:21;4.97;;;1.83;;
64595;SDS011;51003;51.628;6.670;2022-10-18T14:44:48;4.10;;;1.90;;
64595;SDS011;51003;51.628;6.670;2022-10-18T14:49:43;67.17;;;18.80;;
64595;SDS011;51003;51.628;6.670;2022-10-18T14:52:10;7.43;;;3.13;;
64595;SDS011;51003;51.628;6.670;2022-10-18T14:54:37;6.00;;;2.53;;
64595;SDS011;51003;51.628;6.670;2022-10-18T14:57:03;3.70;;;1.93;;
64595;SDS011;51003;51.628;6.670;2022-10-18T14:59:31;4.70;;;2.30;;
64595;SDS011;51003;51.628;6.670;2022-10-18T15:01:59;6.30;;;1.80;;
64595;SDS011;51003;51.628;6.670;2022-10-18T15:04:26;3.90;;;1.77;;
64595;SDS011;51003;51.628;6.670;2022-10-18T15:06:57;4.70;;;1.87;;
64595;SDS011;51003;51.628;6.670;2022-10-18T15:09:23;3.30;;;1.50;;
64595;SDS011;51003;51.628;6.670;2022-10-18T15:11:49;4.47;;;2.20;;
64595;SDS011;51003;51.628;6.670;2022-10-18T15:14:17;3.47;;;1.80;;
64595;SDS011;51003;51.628;6.670;2022-10-18T15:16:43;4.97;;;2.33;;
64595;SDS011;51003;51.628;6.670;2022-10-18T15:21:53;3.97;;;2.03;;
64595;SDS011;51003;51.628;6.670;2022-10-18T15:24:20;8.30;;;2.60;;
64595;SDS011;51003;51.628;6.670;2022-10-18T15:26:52;9.83;;;3.33;;
64595;SDS011;51003;51.628;6.670;2022-10-18T15:29:19;5.43;;;2.47;;
64595;SDS011;51003;51.628;6.670;2022-10-18T15:31:45;4.20;;;1.97;;
64595;SDS011;51003;51.628;6.670;2022-10-18T15:34:22;6.63;;;2.10;;
64595;SDS011;51003;51.628;6.670;2022-10-18T15:36:50;6.03;;;2.00;;
64595;SDS011;51003;51.628;6.670;2022-10-18T15:44:55;6.50;;;3.00;;
64595;SDS011;51003;51.628;6.670;2022-10-18T15:47:20;10.10;;;3.37;;
64595;SDS011;51003;51.628;6.670;2022-10-18T15:52:29;14.63;;;3.20;;
64595;SDS011;51003;51.628;6.670;2022-10-18T15:58:10;5.87;;;2.77;;
64595;SDS011;51003;51.628;6.670;2022-10-18T16:00:45;10.60;;;3.80;;
64595;SDS011;51003;51.628;6.670;2022-10-18T16:03:11;10.63;;;3.27;;
64595;SDS011;51003;51.628;6.670;2022-10-18T16:05:37;10.23;;;4.60;;
64595;SDS011;51003;51.628;6.670;2022-10-18T16:08:02;19.50;;;4.60;;
64595;SDS011;51003;51.628;6.670;2022-10-18T16:10:28;21.37;;;4.23;;
64595;SDS011;51003;51.628;6.670;2022-10-18T16:12:53;12.13;;;3.70;;
64595;SDS011;51003;51.628;6.670;2022-10-18T16:15:19;15.47;;;3.50;;
64595;SDS011;51003;51.628;6.670;2022-10-18T16:17:44;9.50;;;3.13;;
64595;SDS011;51003;51.628;6.670;2022-10-18T16:20:20;10.67;;;3.17;;
64595;SDS011;51003;51.628;6.670;2022-10-18T16:22:47;6.30;;;2.10;;
64595;SDS011;51003;51.628;6.670;2022-10-18T16:25:12;7.07;;;3.13;;
64595;SDS011;51003;51.628;6.670;2022-10-18T16:27:38;8.83;;;2.80;;
64595;SDS011;51003;51.628;6.670;2022-10-18T16:30:17;7.53;;;2.67;;
64595;SDS011;51003;51.628;6.670;2022-10-18T16:32:44;10.63;;;3.10;;
64595;SDS011;51003;51.628;6.670;2022-10-18T16:35:10;5.37;;;3.17;;
64595;SDS011;51003;51.628;6.670;2022-10-18T16:37:36;6.30;;;3.33;;
64595;SDS011;51003;51.628;6.670;2022-10-18T16:40:20;6.43;;;3.33;;
64595;SDS011;51003;51.628;6.670;2022-10-18T16:42:47;13.40;;;4.80;;
64595;SDS011;51003;51.628;6.670;2022-10-18T16:45:12;9.17;;;5.90;;
64595;SDS011;51003;51.628;6.670;2022-10-18T16:47:40;14.70;;;7.37;;
64595;SDS011;51003;51.628;6.670;2022-10-18T16:50:05;15.13;;;9.03;;
64595;SDS011;51003;51.628;6.670;2022-10-18T16:52:32;23.17;;;13.70;;
64595;SDS011;51003;51.628;6.670;2022-10-18T16:54:58;22.27;;;12.47;;
64595;SDS011;51003;51.628;6.670;2022-10-18T16:57:24;20.80;;;12.40;;
64595;SDS011;51003;51.628;6.670;2022-10-18T16:59:49;26.23;;;13.53;;
64595;SDS011;51003;51.628;6.670;2022-10-18T17:02:15;48.97;;;26.80;;
64595;SDS011;51003;51.628;6.670;2022-10-18T17:04:40;52.80;;;26.30;;
64595;SDS011;51003;51.628;6.670;2022-10-18T17:07:06;34.50;;;15.10;;
64595;SDS011;51003;51.628;6.670;2022-10-18T17:09:31;31.27;;;16.10;;
64595;SDS011;51003;51.628;6.670;2022-10-18T17:11:58;16.73;;;9.83;;
64595;SDS011;51003;51.628;6.670;2022-10-18T17:14:24;9.50;;;5.57;;
64595;SDS011;51003;51.628;6.670;2022-10-18T17:16:49;11.13;;;4.70;;
64595;SDS011;51003;51.628;6.670;2022-10-18T17:19:14;20.17;;;7.00;;
64595;SDS011;51003;51.628;6.670;2022-10-18T17:21:40;32.67;;;15.57;;
64595;SDS011;51003;51.628;6.670;2022-10-18T17:24:05;25.30;;;13.00;;
64595;SDS011;51003;51.628;6.670;2022-10-18T17:26:31;42.80;;;21.23;;
64595;SDS011;51003;51.628;6.670;2022-10-18T17:28:58;45.43;;;22.90;;
64595;SDS011;51003;51.628;6.670;2022-10-18T17:31:24;48.23;;;24.50;;
64595;SDS011;51003;51.628;6.670;2022-10-18T17:33:50;48.57;;;22.07;;
64595;SDS011;51003;51.628;6.670;2022-10-18T17:36:18;35.57;;;15.77;;
64595;SDS011;51003;51.628;6.670;2022-10-18T17:38:44;23.57;;;11.17;;
64595;SDS011;51003;51.628;6.670;2022-10-18T17:41:10;24.63;;;11.70;;
64595;SDS011;51003;51.628;6.670;2022-10-18T17:43:37;21.90;;;9.77;;
64595;SDS011;51003;51.628;6.670;2022-10-18T17:46:03;19.47;;;6.97;;
64595;SDS011;51003;51.628;6.670;2022-10-18T17:48:29;19.13;;;7.50;;
64595;SDS011;51003;51.628;6.670;2022-10-18T17:50:54;13.70;;;6.40;;
64595;SDS011;51003;51.628;6.670;2022-10-18T17:53:20;10.77;;;5.90;;
64595;SDS011;51003;51.628;6.670;2022-10-18T17:55:49;17.60;;;5.57;;
64595;SDS011;51003;51.628;6.670;2022-10-18T17:58:14;24.43;;;8.30;;
64595;SDS011;51003;51.628;6.670;2022-10-18T18:00:40;22.67;;;11.13;;
64595;SDS011;51003;51.628;6.670;2022-10-18T18:03:05;23.53;;;12.67;;
64595;SDS011;51003;51.628;6.670;2022-10-18T18:05:31;23.63;;;13.23;;
64595;SDS011;51003;51.628;6.670;2022-10-18T18:07:57;31.10;;;12.93;;
64595;SDS011;51003;51.628;6.670;2022-10-18T18:10:23;24.97;;;13.37;;
64595;SDS011;51003;51.628;6.670;2022-10-18T18:12:48;28.80;;;16.90;;
64595;SDS011;51003;51.628;6.670;2022-10-18T18:15:13;33.30;;;19.77;;
64595;SDS011;51003;51.628;6.670;2022-10-18T18:17:39;28.33;;;15.53;;
64595;SDS011;51003;51.628;6.670;2022-10-18T18:20:04;22.53;;;13.90;;
64595;SDS011;51003;51.628;6.670;2022-10-18T18:22:30;25.27;;;11.90;;
64595;SDS011;51003;51.628;6.670;2022-10-18T18:24:55;21.50;;;12.03;;
64595;SDS011;51003;51.628;6.670;2022-10-18T18:27:21;15.90;;;9.13;;
64595;SDS011;51003;51.628;6.670;2022-10-18T18:29:46;19.53;;;7.87;;
64595;SDS011;51003;51.628;6.670;2022-10-18T18:32:11;24.70;;;8.53;;
64595;SDS011;51003;51.628;6.670;2022-10-18T18:34:37;13.47;;;7.83;;
64595;SDS011;51003;51.628;6.670;2022-10-18T18:37:04;15.97;;;9.10;;
64595;SDS011;51003;51.628;6.670;2022-10-18T18:39:30;15.83;;;8.43;;
64595;SDS011;51003;51.628;6.670;2022-10-18T18:41:59;15.00;;;8.53;;
64595;SDS011;51003;51.628;6.670;2022-10-18T18:44:25;17.77;;;8.43;;
64595;SDS011;51003;51.628;6.670;2022-10-18T18:46:51;14.73;;;8.03;;
64595;SDS011;51003;51.628;6.670;2022-10-18T18:49:17;11.60;;;6.43;;
64595;SDS011;51003;51.628;6.670;2022-10-18T18:51:42;17.37;;;6.43;;
64595;SDS011;51003;51.628;6.670;2022-10-18T18:54:08;9.63;;;5.37;;
64595;SDS011;51003;51.628;6.670;2022-10-18T18:56:34;11.43;;;5.70;;
64595;SDS011;51003;51.628;6.670;2022-10-18T18:59:00;13.20;;;6.00;;
64595;SDS011;51003;51.628;6.670;2022-10-18T19:01:26;9.60;;;5.60;;
64595;SDS011;51003;51.628;6.670;2022-10-18T19:03:54;13.10;;;5.37;;
64595;SDS011;51003;51.628;6.670;2022-10-18T19:06:25;10.30;;;5.37;;
64595;SDS011;51003;51.628;6.670;2022-10-18T19:08:59;8.73;;;5.00;;
64595;SDS011;51003;51.628;6.670;2022-10-18T19:11:27;8.33;;;4.70;;
64595;SDS011;51003;51.628;6.670;2022-10-18T19:13:56;9.57;;;5.40;;
64595;SDS011;51003;51.628;6.670;2022-10-18T19:22:00;12.57;;;6.10;;
64595;SDS011;51003;51.628;6.670;2022-10-18T19:24:29;12.57;;;6.50;;
64595;SDS011;51003;51.628;6.670;2022-10-18T19:29:25;22.90;;;8.53;;
64595;SDS011;51003;51.628;6.670;2022-10-18T19:31:53;14.70;;;8.60;;
64595;SDS011;51003;51.628;6.670;2022-10-18T19:34:21;18.33;;;8.93;;
64595;SDS011;51003;51.628;6.670;2022-10-18T19:36:47;17.90;;;9.90;;
64595;SDS011;51003;51.628;6.670;2022-10-18T19:39:15;16.63;;;8.30;;
64595;SDS011;51003;51.628;6.670;2022-10-18T19:41:49;15.40;;;8.03;;
64595;SDS011;51003;51.628;6.670;2022-10-18T19:44:16;13.73;;;8.30;;
64595;SDS011;51003;51.628;6.670;2022-10-18T19:46:42;15.30;;;8.00;;
64595;SDS011;51003;51.628;6.670;2022-10-18T19:49:08;16.73;;;6.80;;
64595;SDS011;51003;51.628;6.670;2022-10-18T19:51:34;12.30;;;6.50;;
64595;SDS011;51003;51.628;6.670;2022-10-18T19:53:59;11.10;;;5.70;;
64595;SDS011;51003;51.628;6.670;2022-10-18T19:56:25;17.90;;;5.80;;
64595;SDS011;51003;51.628;6.670;2022-10-18T19:58:51;10.53;;;5.23;;
64595;SDS011;51003;51.628;6.670;2022-10-18T20:01:17;7.47;;;5.20;;
64595;SDS011;51003;51.628;6.670;2022-10-18T20:03:43;9.63;;;5.53;;
64595;SDS011;51003;51.628;6.670;2022-10-18T20:06:09;7.50;;;5.30;;
64595;SDS011;51003;51.628;6.670;2022-10-18T20:08:35;9.40;;;5.10;;
64595;SDS011;51003;51.628;6.670;2022-10-18T20:11:02;8.13;;;4.90;;
64595;SDS011;51003;51.628;6.670;2022-10-18T20:13:29;11.33;;;5.07;;
64595;SDS011;51003;51.628;6.670;2022-10-18T20:15:54;11.27;;;5.50;;
64595;SDS011;51003;51.628;6.670;2022-10-18T20:18:20;9.40;;;5.20;;
64595;SDS011;51003;51.628;6.670;2022-10-18T20:20:46;10.70;;;4.97;;
64595;SDS011;51003;51.628;6.670;2022-10-18T20:23:12;8.67;;;5.17;;
64595;SDS011;51003;51.628;6.670;2022-10-18T20:25:37;8.13;;;4.47;;
64595;SDS011;51003;51.628;6.670;2022-10-18T20:28:03;8.50;;;4.90;;
64595;SDS011;51003;51.628;6.670;2022-10-18T20:30:29;6.37;;;4.60;;
64595;SDS011;51003;51.628;6.670;2022-10-18T20:32:54;11.97;;;5.40;;
64595;SDS011;51003;51.628;6.670;2022-10-18T20:35:20;15.37;;;4.63;;
64595;SDS011;51003;51.628;6.670;2022-10-18T20:37:45;8.07;;;4.50;;
64595;SDS011;51003;51.628;6.670;2022-10-18T20:40:12;6.97;;;4.67;;
64595;SDS011;51003;51.628;6.670;2022-10-18T20:42:38;11.50;;;5.03;;
64595;SDS011;51003;51.628;6.670;2022-10-18T20:45:04;9.90;;;5.03;;
64595;SDS011;51003;51.628;6.670;2022-10-18T20:47:31;7.63;;;4.77;;
64595;SDS011;51003;51.628;6.670;2022-10-18T20:49:57;8.90;;;4.60;;
64595;SDS011;51003;51.628;6.670;2022-10-18T20:52:22;8.63;;;4.30;;
64595;SDS011;51003;51.628;6.670;2022-10-18T20:54:48;11.23;;;5.60;;
64595;SDS011;51003;51.628;6.670;2022-10-18T20:57:13;13.40;;;6.27;;
64595;SDS011;51003;51.628;6.670;2022-10-18T20:59:38;13.53;;;5.80;;
64595;SDS011;51003;51.628;6.670;2022-10-18T21:02:04;9.40;;;5.57;;
64595;SDS011;51003;51.628;6.670;2022-10-18T21:04:29;12.50;;;5.70;;
64595;SDS011;51003;51.628;6.670;2022-10-18T21:06:54;11.10;;;6.10;;
64595;SDS011;51003;51.628;6.670;2022-10-18T21:09:20;12.30;;;6.10;;
64595;SDS011;51003;51.628;6.670;2022-10-18T21:11:46;10.80;;;5.67;;
64595;SDS011;51003;51.628;6.670;2022-10-18T21:14:14;7.90;;;4.40;;
64595;SDS011;51003;51.628;6.670;2022-10-18T21:16:41;10.23;;;4.53;;
64595;SDS011;51003;51.628;6.670;2022-10-18T21:19:15;8.90;;;3.80;;
64595;SDS011;51003;51.628;6.670;2022-10-18T21:21:44;7.47;;;4.10;;
64595;SDS011;51003;51.628;6.670;2022-10-18T21:24:12;7.80;;;3.63;;
64595;SDS011;51003;51.628;6.670;2022-10-18T21:26:37;6.30;;;3.27;;
64595;SDS011;51003;51.628;6.670;2022-10-18T21:29:04;6.13;;;3.60;;
64595;SDS011;51003;51.628;6.670;2022-10-18T21:31:30;4.83;;;3.37;;
64595;SDS011;51003;51.628;6.670;2022-10-18T21:33:59;4.70;;;3.10;;
64595;SDS011;51003;51.628;6.670;2022-10-18T21:36:28;11.83;;;3.83;;
64595;SDS011;51003;51.628;6.670;2022-10-18T21:38:55;8.30;;;3.60;;
64595;SDS011;51003;51.628;6.670;2022-10-18T21:41:21;9.53;;;4.00;;
64595;SDS011;51003;51.628;6.670;2022-10-18T21:43:48;6.70;;;3.60;;
64595;SDS011;51003;51.628;6.670;2022-10-18T21:46:15;4.23;;;3.40;;
64595;SDS011;51003;51.628;6.670;2022-10-18T21:48:42;6.47;;;2.90;;
64595;SDS011;51003;51.628;6.670;2022-10-18T21:51:08;7.47;;;3.27;;
64595;SDS011;51003;51.628;6.670;2022-10-18T21:53:34;3.70;;;3.00;;
64595;SDS011;51003;51.628;6.670;2022-10-18T21:56:04;4.23;;;3.10;;
64595;SDS011;51003;51.628;6.670;2022-10-18T21:58:30;5.70;;;3.20;;
64595;SDS011;51003;51.628;6.670;2022-10-18T22:00:55;4.97;;;2.87;;
64595;SDS011;51003;51.628;6.670;2022-10-18T22:03:21;4.10;;;2.97;;
64595;SDS011;51003;51.628;6.670;2022-10-18T22:05:55;6.87;;;3.00;;
64595;SDS011;51003;51.628;6.670;2022-10-18T22:08:21;3.97;;;2.97;;
64595;SDS011;51003;51.628;6.670;2022-10-18T22:10:47;5.40;;;2.93;;
64595;SDS011;51003;51.628;6.670;2022-10-18T22:13:12;9.13;;;3.60;;
64595;SDS011;51003;51.628;6.670;2022-10-18T22:15:37;7.13;;;4.10;;
64595;SDS011;51003;51.628;6.670;2022-10-18T22:18:03;3.53;;;3.00;;
64595;SDS011;51003;51.628;6.670;2022-10-18T22:20:28;17.87;;;3.40;;
64595;SDS011;51003;51.628;6.670;2022-10-18T22:22:53;4.83;;;3.40;;
64595;SDS011;51003;51.628;6.670;2022-10-18T22:25:19;12.70;;;4.03;;
64595;SDS011;51003;51.628;6.670;2022-10-18T22:27:45;6.90;;;3.80;;
64595;SDS011;51003;51.628;6.670;2022-10-18T22:30:10;5.33;;;4.00;;
64595;SDS011;51003;51.628;6.670;2022-10-18T22:32:36;8.57;;;3.63;;
64595;SDS011;51003;51.628;6.670;2022-10-18T22:35:01;5.80;;;3.43;;
64595;SDS011;51003;51.628;6.670;2022-10-18T22:37:26;11.43;;;3.20;;
64595;SDS011;51003;51.628;6.670;2022-10-18T22:39:52;5.03;;;2.97;;
64595;SDS011;51003;51.628;6.670;2022-10-18T22:42:17;6.83;;;4.50;;
64595;SDS011;51003;51.628;6.670;2022-10-18T22:44:43;7.30;;;3.60;;
64595;SDS011;51003;51.628;6.670;2022-10-18T22:47:09;4.20;;;3.23;;
64595;SDS011;51003;51.628;6.670;2022-10-18T22:49:34;11.47;;;3.63;;
64595;SDS011;51003;51.628;6.670;2022-10-18T22:51:59;6.70;;;3.57;;
64595;SDS011;51003;51.628;6.670;2022-10-18T22:54:25;4.33;;;3.43;;
64595;SDS011;51003;51.628;6.670;2022-10-18T22:56:50;8.67;;;3.43;;
64595;SDS011;51003;51.628;6.670;2022-10-18T22:59:15;5.77;;;3.30;;
64595;SDS011;51003;51.628;6.670;2022-10-18T23:01:41;5.57;;;3.20;;
64595;SDS011;51003;51.628;6.670;2022-10-18T23:04:06;6.90;;;3.43;;
64595;SDS011;51003;51.628;6.670;2022-10-18T23:06:33;8.23;;;3.40;;
64595;SDS011;51003;51.628;6.670;2022-10-18T23:09:01;6.37;;;3.13;;
64595;SDS011;51003;51.628;6.670;2022-10-18T23:11:29;5.83;;;3.17;;
64595;SDS011;51003;51.628;6.670;2022-10-18T23:13:54;5.20;;;3.23;;
64595;SDS011;51003;51.628;6.670;2022-10-18T23:16:20;5.50;;;3.30;;
64595;SDS011;51003;51.628;6.670;2022-10-18T23:18:50;5.67;;;3.30;;
64595;SDS011;51003;51.628;6.670;2022-10-18T23:21:17;10.13;;;4.00;;
64595;SDS011;51003;51.628;6.670;2022-10-18T23:23:43;9.30;;;3.47;;
64595;SDS011;51003;51.628;6.670;2022-10-18T23:26:10;7.90;;;3.83;;
64595;SDS011;51003;51.628;6.670;2022-10-18T23:28:38;4.13;;;3.10;;
64595;SDS011;51003;51.628;6.670;2022-10-18T23:31:08;8.73;;;3.20;;
64595;SDS011;51003;51.628;6.670;2022-10-18T23:33:36;5.60;;;3.20;;
64595;SDS011;51003;51.628;6.670;2022-10-18T23:36:01;9.57;;;3.97;;
64595;SDS011;51003;51.628;6.670;2022-10-18T23:38:28;8.20;;;3.50;;
64595;SDS011;51003;51.628;6.670;2022-10-18T23:40:54;6.37;;;3.40;;
64595;SDS011;51003;51.628;6.670;2022-10-18T23:43:19;8.50;;;4.00;;
64595;SDS011;51003;51.628;6.670;2022-10-18T23:45:45;6.03;;;3.70;;
64595;SDS011;51003;51.628;6.670;2022-10-18T23:48:10;6.17;;;3.20;;
64595;SDS011;51003;51.628;6.670;2022-10-18T23:50:35;7.27;;;3.63;;
64595;SDS011;51003;51.628;6.670;2022-10-18T23:53:01;9.13;;;3.60;;
64595;SDS011;51003;51.628;6.670;2022-10-18T23:55:26;11.87;;;3.70;;
64595;SDS011;51003;51.628;6.670;2022-10-18T23:57:51;6.30;;;3.77;;
